PAL1192 RPVE-RPLL
Flight info
| Callsign | PAL1192 |
|---|---|
| Flight time | 0h 34m |
| Altitude | 20000 |
| Route | MINOR8A MINOR B473 LAIYA LAIYA1A |
| Aircraft | A20N/M-SDE2E3FGHIRWXY/LB1 |
Departure
| Time | 2026-04-24 08:56 |
|---|---|
| Airport | Godofredo P. Ramos Airport (RPVE) |
Arrival
| Time | 2026-04-24 09:31 |
|---|---|
| Airport | Ninoy Aquino International Airport (RPLL) |
| Time | Latitude | Longitude | Altitude | Speed | Heading |
|---|---|---|---|---|---|
| 2026-04-24 08:15 | 11.92638 | 121.96345 | 12 ft | 0 kts | 152° |
| 2026-04-24 08:45 | 11.92644 | 121.96342 | 12 ft | 2 kts | 152° |
| 2026-04-24 08:46 | 11.92658 | 121.96336 | 12 ft | 2 kts | 175° |
| 2026-04-24 08:46 | 11.92673 | 121.96337 | 12 ft | 2 kts | 200° |
| 2026-04-24 08:46 | 11.92686 | 121.96345 | 12 ft | 2 kts | 227° |
| 2026-04-24 08:46 | 11.92691 | 121.96352 | 12 ft | 1 kts | 243° |
| 2026-04-24 08:47 | 11.92694 | 121.96358 | 12 ft | 0 kts | 243° |
| 2026-04-24 08:50 | 11.92691 | 121.96352 | 12 ft | 1 kts | 243° |
| 2026-04-24 08:50 | 11.92682 | 121.96335 | 12 ft | 3 kts | 243° |
| 2026-04-24 08:51 | 11.92669 | 121.96307 | 12 ft | 5 kts | 243° |
| 2026-04-24 08:51 | 11.92649 | 121.96270 | 12 ft | 6 kts | 243° |
| 2026-04-24 08:51 | 11.92637 | 121.96220 | 12 ft | 7 kts | 281° |
| 2026-04-24 08:51 | 11.92679 | 121.96183 | 12 ft | 8 kts | 338° |
| 2026-04-24 08:52 | 11.92739 | 121.96153 | 12 ft | 9 kts | 332° |
| 2026-04-24 08:52 | 11.92795 | 121.96111 | 12 ft | 10 kts | 293° |
| 2026-04-24 08:52 | 11.92774 | 121.96040 | 12 ft | 11 kts | 245° |
| 2026-04-24 08:52 | 11.92735 | 121.95963 | 12 ft | 13 kts | 242° |
| 2026-04-24 08:53 | 11.92684 | 121.95862 | 12 ft | 17 kts | 244° |
| 2026-04-24 08:53 | 11.92621 | 121.95735 | 12 ft | 23 kts | 243° |
| 2026-04-24 08:53 | 11.92535 | 121.95563 | 12 ft | 31 kts | 243° |
| 2026-04-24 08:53 | 11.92431 | 121.95351 | 12 ft | 33 kts | 244° |
| 2026-04-24 08:54 | 11.92333 | 121.95155 | 12 ft | 27 kts | 243° |
| 2026-04-24 08:54 | 11.92243 | 121.95042 | 12 ft | 13 kts | 232° |
| 2026-04-24 08:54 | 11.92265 | 121.94997 | 12 ft | 7 kts | 37° |
| 2026-04-24 08:54 | 11.92281 | 121.95047 | 12 ft | 8 kts | 72° |
| 2026-04-24 08:55 | 11.92306 | 121.95100 | 12 ft | 5 kts | 62° |
| 2026-04-24 08:55 | 11.92309 | 121.95105 | 12 ft | 0 kts | 61° |
| 2026-04-24 08:55 | 11.92313 | 121.95113 | 12 ft | 10 kts | 62° |
| 2026-04-24 08:55 | 11.92472 | 121.95431 | 13 ft | 89 kts | 63° |
| 2026-04-24 08:56 | 11.92865 | 121.96216 | 61 ft | 148 kts | 63° |
| 2026-04-24 08:56 | 11.93338 | 121.97185 | 701 ft | 150 kts | 63° |
| 2026-04-24 08:56 | 11.93825 | 121.98170 | 1413 ft | 147 kts | 63° |
| 2026-04-24 08:56 | 11.94346 | 121.99217 | 1779 ft | 168 kts | 63° |
| 2026-04-24 08:57 | 11.94936 | 122.00373 | 2226 ft | 186 kts | 62° |
| 2026-04-24 08:57 | 11.95558 | 122.01575 | 2724 ft | 200 kts | 64° |
| 2026-04-24 08:57 | 11.96402 | 122.02795 | 3165 ft | 221 kts | 44° |
| 2026-04-24 08:57 | 11.97749 | 122.03683 | 3653 ft | 240 kts | 30° |
| 2026-04-24 08:58 | 11.99349 | 122.04482 | 4167 ft | 257 kts | 28° |
| 2026-04-24 08:58 | 12.01063 | 122.05329 | 4859 ft | 266 kts | 28° |
| 2026-04-24 08:58 | 12.02766 | 122.06185 | 5617 ft | 271 kts | 29° |
| 2026-04-24 08:58 | 12.04475 | 122.07053 | 6313 ft | 275 kts | 28° |
| 2026-04-24 08:59 | 12.06202 | 122.07922 | 6784 ft | 278 kts | 28° |
| 2026-04-24 08:59 | 12.07947 | 122.08801 | 7458 ft | 283 kts | 28° |
| 2026-04-24 08:59 | 12.09712 | 122.09694 | 8263 ft | 284 kts | 27° |
| 2026-04-24 08:59 | 12.11493 | 122.10593 | 8986 ft | 288 kts | 27° |
| 2026-04-24 09:00 | 12.13308 | 122.11505 | 9681 ft | 292 kts | 27° |
| 2026-04-24 09:00 | 12.15148 | 122.12430 | 10341 ft | 297 kts | 27° |
| 2026-04-24 09:00 | 12.17047 | 122.13388 | 10725 ft | 312 kts | 27° |
| 2026-04-24 09:00 | 12.19050 | 122.14401 | 11023 ft | 330 kts | 26° |
| 2026-04-24 09:01 | 12.21156 | 122.15466 | 11305 ft | 347 kts | 27° |
| 2026-04-24 09:01 | 12.23395 | 122.16602 | 11577 ft | 363 kts | 26° |
| 2026-04-24 09:01 | 12.25695 | 122.17768 | 11833 ft | 378 kts | 26° |
| 2026-04-24 09:01 | 12.28100 | 122.18989 | 12238 ft | 387 kts | 26° |
| 2026-04-24 09:02 | 12.30539 | 122.20226 | 12751 ft | 392 kts | 26° |
| 2026-04-24 09:02 | 12.32984 | 122.21451 | 13274 ft | 396 kts | 24° |
| 2026-04-24 09:02 | 12.35669 | 122.22180 | 13756 ft | 400 kts | 4° |
| 2026-04-24 09:02 | 12.38416 | 122.21909 | 14298 ft | 401 kts | 344° |
| 2026-04-24 09:03 | 12.40945 | 122.20721 | 14809 ft | 403 kts | 327° |
| 2026-04-24 09:03 | 12.43280 | 122.19099 | 15294 ft | 406 kts | 325° |
| 2026-04-24 09:03 | 12.45648 | 122.17425 | 15736 ft | 410 kts | 325° |
| 2026-04-24 09:03 | 12.48002 | 122.15764 | 16178 ft | 414 kts | 325° |
| 2026-04-24 09:04 | 12.50382 | 122.14094 | 16624 ft | 417 kts | 325° |
| 2026-04-24 09:04 | 12.52783 | 122.12415 | 17045 ft | 420 kts | 326° |
| 2026-04-24 09:04 | 12.55199 | 122.10731 | 17472 ft | 422 kts | 326° |
| 2026-04-24 09:04 | 12.57637 | 122.09032 | 17904 ft | 425 kts | 326° |
| 2026-04-24 09:05 | 12.60096 | 122.07322 | 18357 ft | 427 kts | 326° |
| 2026-04-24 09:05 | 12.62578 | 122.05595 | 18792 ft | 429 kts | 326° |
| 2026-04-24 09:05 | 12.64510 | 122.04252 | 19125 ft | 430 kts | 326° |
| 2026-04-24 09:05 | 12.66806 | 122.02655 | 19509 ft | 432 kts | 326° |
| 2026-04-24 09:06 | 12.69300 | 122.00920 | 19796 ft | 434 kts | 326° |
| 2026-04-24 09:06 | 12.71776 | 121.99197 | 19840 ft | 434 kts | 326° |
| 2026-04-24 09:06 | 12.74281 | 121.97454 | 19844 ft | 433 kts | 326° |
| 2026-04-24 09:06 | 12.76802 | 121.95699 | 19857 ft | 433 kts | 326° |
| 2026-04-24 09:07 | 12.79289 | 121.93966 | 19867 ft | 433 kts | 326° |
| 2026-04-24 09:07 | 12.81790 | 121.92224 | 19862 ft | 433 kts | 326° |
| 2026-04-24 09:07 | 12.86768 | 121.88753 | 19854 ft | 433 kts | 326° |
| 2026-04-24 09:08 | 12.89262 | 121.87013 | 19863 ft | 433 kts | 326° |
| 2026-04-24 09:08 | 12.91755 | 121.85274 | 19865 ft | 433 kts | 326° |
| 2026-04-24 09:08 | 12.94247 | 121.83536 | 19855 ft | 433 kts | 326° |
| 2026-04-24 09:08 | 12.96743 | 121.81795 | 19860 ft | 433 kts | 326° |
| 2026-04-24 09:09 | 12.99241 | 121.80051 | 19863 ft | 433 kts | 326° |
| 2026-04-24 09:09 | 13.01730 | 121.78313 | 19859 ft | 433 kts | 326° |
| 2026-04-24 09:09 | 13.04248 | 121.76556 | 19862 ft | 434 kts | 326° |
| 2026-04-24 09:09 | 13.06750 | 121.74809 | 19867 ft | 433 kts | 326° |
| 2026-04-24 09:10 | 13.09225 | 121.73080 | 19873 ft | 434 kts | 326° |
| 2026-04-24 09:10 | 13.11739 | 121.71326 | 19876 ft | 434 kts | 326° |
| 2026-04-24 09:10 | 13.14227 | 121.69597 | 19861 ft | 434 kts | 326° |
| 2026-04-24 09:10 | 13.16725 | 121.67859 | 19868 ft | 433 kts | 326° |
| 2026-04-24 09:11 | 13.19236 | 121.66110 | 19869 ft | 433 kts | 326° |
| 2026-04-24 09:11 | 13.21722 | 121.64374 | 19869 ft | 432 kts | 326° |
| 2026-04-24 09:11 | 13.24190 | 121.62648 | 19872 ft | 431 kts | 326° |
| 2026-04-24 09:11 | 13.26676 | 121.60908 | 19867 ft | 432 kts | 326° |
| 2026-04-24 09:12 | 13.29172 | 121.59159 | 19876 ft | 432 kts | 326° |
| 2026-04-24 09:12 | 13.31642 | 121.57427 | 19876 ft | 432 kts | 326° |
| 2026-04-24 09:12 | 13.34134 | 121.55680 | 19868 ft | 432 kts | 326° |
| 2026-04-24 09:12 | 13.36627 | 121.53932 | 19873 ft | 432 kts | 326° |
| 2026-04-24 09:13 | 13.39116 | 121.52187 | 19879 ft | 432 kts | 326° |
| 2026-04-24 09:13 | 13.41625 | 121.50427 | 19869 ft | 432 kts | 326° |
| 2026-04-24 09:13 | 13.44114 | 121.48679 | 19862 ft | 432 kts | 326° |
| 2026-04-24 09:13 | 13.46573 | 121.46952 | 19856 ft | 432 kts | 326° |
| 2026-04-24 09:14 | 13.49065 | 121.45200 | 19865 ft | 432 kts | 325° |
| 2026-04-24 09:14 | 13.51556 | 121.43447 | 19870 ft | 432 kts | 325° |
| 2026-04-24 09:14 | 13.54042 | 121.41699 | 19687 ft | 433 kts | 325° |
| 2026-04-24 09:14 | 13.56524 | 121.39954 | 19212 ft | 430 kts | 325° |
| 2026-04-24 09:15 | 13.58979 | 121.38238 | 18699 ft | 426 kts | 326° |
| 2026-04-24 09:15 | 13.61422 | 121.36539 | 18207 ft | 421 kts | 326° |
| 2026-04-24 09:15 | 13.63842 | 121.34851 | 17716 ft | 417 kts | 326° |
| 2026-04-24 09:15 | 13.66257 | 121.33160 | 17182 ft | 413 kts | 326° |
| 2026-04-24 09:16 | 13.68688 | 121.31459 | 16621 ft | 410 kts | 326° |
| 2026-04-24 09:16 | 13.71179 | 121.29720 | 16032 ft | 407 kts | 325° |
| 2026-04-24 09:16 | 13.73663 | 121.27988 | 15428 ft | 405 kts | 325° |
| 2026-04-24 09:16 | 13.76058 | 121.26321 | 14856 ft | 402 kts | 325° |
| 2026-04-24 09:17 | 13.78377 | 121.24705 | 14300 ft | 400 kts | 325° |
| 2026-04-24 09:17 | 13.80675 | 121.23103 | 13738 ft | 397 kts | 325° |
| 2026-04-24 09:17 | 13.82945 | 121.21519 | 13184 ft | 394 kts | 325° |
| 2026-04-24 09:17 | 13.85210 | 121.19937 | 12639 ft | 391 kts | 325° |
| 2026-04-24 09:18 | 13.87474 | 121.18356 | 12085 ft | 388 kts | 325° |
| 2026-04-24 09:18 | 13.89691 | 121.16807 | 11534 ft | 385 kts | 325° |
| 2026-04-24 09:18 | 13.91911 | 121.15256 | 10988 ft | 382 kts | 325° |
| 2026-04-24 09:18 | 13.94106 | 121.13757 | 10644 ft | 372 kts | 329° |
| 2026-04-24 09:19 | 13.96399 | 121.12651 | 10490 ft | 358 kts | 340° |
| 2026-04-24 09:19 | 13.98792 | 121.12003 | 10337 ft | 344 kts | 348° |
| 2026-04-24 09:19 | 14.01117 | 121.11557 | 10203 ft | 331 kts | 349° |
| 2026-04-24 09:19 | 14.03338 | 121.11156 | 10126 ft | 316 kts | 349° |
| 2026-04-24 09:20 | 14.05450 | 121.10773 | 10063 ft | 302 kts | 349° |
| 2026-04-24 09:20 | 14.07517 | 121.10390 | 9738 ft | 299 kts | 349° |
| 2026-04-24 09:20 | 14.09554 | 121.10008 | 9393 ft | 297 kts | 349° |
| 2026-04-24 09:20 | 14.11611 | 121.09620 | 9057 ft | 294 kts | 349° |
| 2026-04-24 09:21 | 14.13618 | 121.09242 | 8734 ft | 291 kts | 349° |
| 2026-04-24 09:21 | 14.15616 | 121.08862 | 8409 ft | 289 kts | 349° |
| 2026-04-24 09:21 | 14.17573 | 121.08489 | 8088 ft | 286 kts | 349° |
| 2026-04-24 09:21 | 14.19524 | 121.08117 | 7773 ft | 283 kts | 349° |
| 2026-04-24 09:22 | 14.21440 | 121.07719 | 7435 ft | 282 kts | 343° |
| 2026-04-24 09:22 | 14.23116 | 121.06680 | 7020 ft | 283 kts | 311° |
| 2026-04-24 09:22 | 14.24235 | 121.05050 | 6713 ft | 280 kts | 302° |
| 2026-04-24 09:22 | 14.25238 | 121.03331 | 6389 ft | 278 kts | 302° |
| 2026-04-24 09:23 | 14.26251 | 121.01640 | 6077 ft | 276 kts | 303° |
| 2026-04-24 09:23 | 14.27301 | 120.99966 | 5768 ft | 274 kts | 304° |
| 2026-04-24 09:23 | 14.28355 | 120.98339 | 5456 ft | 272 kts | 305° |
| 2026-04-24 09:23 | 14.29415 | 120.96732 | 5146 ft | 270 kts | 305° |
| 2026-04-24 09:24 | 14.30475 | 120.95142 | 4839 ft | 269 kts | 306° |
| 2026-04-24 09:24 | 14.31535 | 120.93561 | 4528 ft | 268 kts | 306° |
| 2026-04-24 09:24 | 14.32591 | 120.91988 | 4226 ft | 267 kts | 306° |
| 2026-04-24 09:24 | 14.33653 | 120.90407 | 3915 ft | 266 kts | 305° |
| 2026-04-24 09:25 | 14.34706 | 120.88844 | 3616 ft | 265 kts | 305° |
| 2026-04-24 09:25 | 14.35748 | 120.87295 | 3318 ft | 265 kts | 305° |
| 2026-04-24 09:25 | 14.36789 | 120.85749 | 3134 ft | 256 kts | 304° |
| 2026-04-24 09:25 | 14.37819 | 120.84321 | 3067 ft | 241 kts | 317° |
| 2026-04-24 09:26 | 14.39246 | 120.83572 | 2961 ft | 225 kts | 359° |
| 2026-04-24 09:26 | 14.40670 | 120.83922 | 2920 ft | 206 kts | 38° |
| 2026-04-24 09:26 | 14.41602 | 120.85009 | 2911 ft | 203 kts | 61° |
| 2026-04-24 09:26 | 14.42282 | 120.86315 | 2799 ft | 206 kts | 65° |
| 2026-04-24 09:27 | 14.42925 | 120.87614 | 2589 ft | 203 kts | 64° |
| 2026-04-24 09:27 | 14.43581 | 120.88861 | 2392 ft | 195 kts | 63° |
| 2026-04-24 09:27 | 14.44228 | 120.90037 | 2113 ft | 183 kts | 62° |
| 2026-04-24 09:27 | 14.44846 | 120.91139 | 1883 ft | 169 kts | 62° |
| 2026-04-24 09:28 | 14.45411 | 120.92148 | 1661 ft | 156 kts | 63° |
| 2026-04-24 09:28 | 14.45925 | 120.93069 | 1443 ft | 142 kts | 63° |
| 2026-04-24 09:28 | 14.46408 | 120.93933 | 1272 ft | 138 kts | 64° |
| 2026-04-24 09:28 | 14.46888 | 120.94800 | 1114 ft | 138 kts | 64° |
| 2026-04-24 09:29 | 14.47363 | 120.95655 | 963 ft | 137 kts | 63° |
| 2026-04-24 09:29 | 14.47841 | 120.96510 | 788 ft | 138 kts | 64° |
| 2026-04-24 09:29 | 14.48319 | 120.97372 | 604 ft | 137 kts | 63° |
| 2026-04-24 09:29 | 14.48781 | 120.98216 | 470 ft | 136 kts | 63° |
| 2026-04-24 09:30 | 14.49264 | 120.99076 | 275 ft | 137 kts | 63° |
| 2026-04-24 09:30 | 14.49731 | 120.99911 | 125 ft | 134 kts | 61° |
| 2026-04-24 09:30 | 14.50188 | 121.00725 | 37 ft | 118 kts | 67° |
| 2026-04-24 09:30 | 14.50507 | 121.01311 | 43 ft | 69 kts | 60° |
| 2026-04-24 09:31 | 14.50660 | 121.01588 | 48 ft | 19 kts | 60° |
| 2026-04-24 09:31 | 14.50673 | 121.01611 | 49 ft | 0 kts | 56° |
| 2026-04-24 09:31 | 14.50710 | 121.01662 | 50 ft | 14 kts | 50° |
| 2026-04-24 09:31 | 14.50801 | 121.01746 | 51 ft | 20 kts | 38° |
| 2026-04-24 09:32 | 14.50872 | 121.01801 | 52 ft | 4 kts | 34° |
| 2026-04-24 09:32 | 14.50874 | 121.01802 | 52 ft | 0 kts | 34° |
| 2026-04-24 09:36 | 14.50885 | 121.01811 | 52 ft | 3 kts | 38° |
| 2026-04-24 09:36 | 14.50921 | 121.01841 | 52 ft | 12 kts | 40° |
| 2026-04-24 09:36 | 14.50990 | 121.01903 | 53 ft | 12 kts | 50° |
| 2026-04-24 09:36 | 14.51033 | 121.01975 | 55 ft | 11 kts | 61° |
| 2026-04-24 09:37 | 14.51068 | 121.01989 | 56 ft | 6 kts | 321° |
| 2026-04-24 09:37 | 14.51107 | 121.01949 | 56 ft | 11 kts | 315° |
| 2026-04-24 09:37 | 14.51182 | 121.01871 | 56 ft | 17 kts | 317° |
| 2026-04-24 09:37 | 14.51272 | 121.01779 | 57 ft | 18 kts | 314° |
| 2026-04-24 09:38 | 14.51361 | 121.01688 | 58 ft | 17 kts | 314° |
| 2026-04-24 09:38 | 14.51450 | 121.01595 | 56 ft | 17 kts | 316° |
| 2026-04-24 09:38 | 14.51511 | 121.01555 | 56 ft | 8 kts | 16° |
| 2026-04-24 09:38 | 14.51552 | 121.01595 | 56 ft | 8 kts | 49° |
| 2026-04-24 09:39 | 14.51576 | 121.01620 | 57 ft | 0 kts | 43° |